Ikarus — SWEW — position and weather

sailwx.info

Track history (hours):
 
Tides and Currents Weather Stations Pressure Air Temp Water Temp Dewpoint Dewpoint Depression Visibility Wind Speed Wind Dir Waves Ship Positions

Ikarus

Last reported at 2014-Oct-24 07:33 UTC. Time now 2014-Oct-24 07:56 UTC.
Position N 43°35' E 010°18'.

Length 200 m; draft 6.7 m.

Type: Ship. MMSI: 239513000.

Date/timePositionNaut miles runAvg speedWind from/ knotsBaromVisibWave heightAir tempDewpointWater temp
2014-Oct-24 07:33N 43°35' E 010°18'0 0.0
2014-Oct-24 06:33N 43°35' E 010°18'0 0.0
2014-Oct-24 05:33N 43°35' E 010°18'0 0.0
2014-Oct-24 04:33N 43°35' E 010°18'0 0.0
2014-Oct-24 03:33N 43°35' E 010°18'0 0.0
2014-Oct-24 02:33N 43°35' E 010°18'0 0.0
2014-Oct-24 01:27N 43°35' E 010°18'0 0.0
2014-Oct-24 00:33N 43°35' E 010°18'0 0.0
2014-Oct-23 23:33N 43°35' E 010°18'0 0.0
2014-Oct-23 22:33N 43°35' E 010°18'1 0.5
2014-Oct-23 21:33N 43°34' E 010°18'7 7.3
2014-Oct-23 20:33N 43°30' E 010°10'1817.7
2014-Oct-23 19:33N 43°29' E 009°46'2120.9
2014-Oct-23 18:33N 43°24' E 009°18'2020.4
2014-Oct-23 17:33N 43°20' E 008°51'2420.4
2014-Oct-23 16:22N 43°14' E 008°18'3719.5
2014-Oct-23 14:27N 43°06' E 007°28'1819.7
2014-Oct-23 13:33N 43°02' E 007°05'2020.0
2014-Oct-23 12:33N 42°58' E 006°38'2219.7
2014-Oct-23 11:26N 42°55' E 006°08'4619.7
2014-Oct-23 09:07N 43°00' E 005°06'1119.1
2014-Oct-23 08:33N 43°03' E 004°52'2218.1
2014-Oct-23 07:20N 42°50' E 004°27'1617.7
2014-Oct-23 06:27N 42°39' E 004°11'12110.1
2014-Oct-22 18:27N 41°18' E 002°11'21920.1
2014-Oct-22 07:33N 38°04' W 000°04'2120.4
2014-Oct-22 06:33N 37°47' W 000°18'1919.5
2014-Oct-22 05:33N 37°32' W 000°33'1919.5
2014-Oct-22 04:33N 37°19' W 000°51'2020.2
2014-Oct-22 03:33N 37°06' W 001°11'20420.0
2014-Oct-21 17:23N 35°59' W 005°10'16 2.1
2014-Oct-21 09:30N 35°56' W 005°30'1313.5
2014-Oct-21 08:33N 36°02' W 005°16'20614.6
2014-Oct-20 18:25N 37°07' W 001°12'1416.2
2014-Oct-20 17:34N 37°16' W 000°59'1616.2
2014-Oct-20 16:33N 37°27' W 000°44'1616.4
2014-Oct-20 15:33N 37°39' W 000°30'1616.0
2014-Oct-20 14:33N 37°52' W 000°18'3816.1
2014-Oct-20 12:09N 38°25' E 000°08'5916.1
2014-Oct-20 08:31N 39°15' E 000°46'14210.7
2014-Oct-19 19:15N 41°22' E 002°11'1 1.1
2014-Oct-19 18:18N 41°21' E 002°11'1818.9
2014-Oct-19 17:20N 41°26' E 002°35'1616.7
2014-Oct-19 16:22N 41°32' E 002°55'1619.2
2014-Oct-19 15:32N 41°39' E 003°14'2020.2
2014-Oct-19 14:33N 41°48' E 003°38'2120.4
2014-Oct-19 13:32N 41°57' E 004°03'2119.1
2014-Oct-19 12:27N 42°06' E 004°28'1819.2
2014-Oct-19 11:32N 42°13' E 004°50'1919.5
2014-Oct-19 10:33N 42°22' E 005°13'9118.2
2014-Oct-19 05:33N 42°56' E 007°08'1919.1
2014-Oct-19 04:33N 43°01' E 007°33'3919.3
2014-Oct-19 02:33N 43°12' E 008°24'1918.9
2014-Oct-19 01:33N 43°17' E 008°49'1918.7
2014-Oct-19 00:33N 43°22' E 009°13'1919.2
2014-Oct-18 23:33N 43°27' E 009°39'1919.4
2014-Oct-18 22:33N 43°30' E 010°05'1010.4
2014-Oct-18 21:33N 43°35' E 010°18'0 0.1
2014-Oct-18 20:33N 43°35' E 010°18'0 0.0
2014-Oct-18 19:33N 43°35' E 010°18'0 0.0
2014-Oct-18 18:34N 43°35' E 010°18'0 0.0
2014-Oct-18 17:34N 43°35' E 010°18'0 0.0
2014-Oct-18 16:34N 43°35' E 010°18'0 0.0
2014-Oct-18 15:34N 43°35' E 010°18'0 0.0
2014-Oct-18 14:34N 43°35' E 010°18'0 0.0
2014-Oct-18 13:34N 43°35' E 010°18'0 0.0
2014-Oct-18 12:34N 43°35' E 010°18'0 0.0
2014-Oct-18 11:34N 43°35' E 010°18'0 0.0
2014-Oct-18 10:33N 43°35' E 010°18'0 0.0
2014-Oct-18 09:33N 43°35' E 010°18'0 0.0
2014-Oct-18 08:34N 43°35' E 010°18'0 0.0
2014-Oct-18 07:34N 43°35' E 010°18'0 0.0
2014-Oct-18 06:34N 43°35' E 010°18'0 0.0
2014-Oct-18 05:33N 43°35' E 010°18'0 0.0
2014-Oct-18 04:34N 43°35' E 010°18'0 0.0
2014-Oct-18 03:34N 43°35' E 010°18'0 0.0
2014-Oct-18 02:34N 43°35' E 010°18'0 0.0
2014-Oct-18 01:33N 43°35' E 010°18'0 0.0
2014-Oct-18 00:34N 43°35' E 010°18'0 0.0
2014-Oct-17 23:34N 43°35' E 010°18'0 0.0
2014-Oct-17 22:34N 43°35' E 010°18'0 0.0
2014-Oct-17 21:34N 43°35' E 010°18'0 0.0
2014-Oct-17 20:33N 43°35' E 010°18'0 0.0
2014-Oct-17 19:33N 43°35' E 010°18'0 0.0
2014-Oct-17 18:33N 43°35' E 010°18'0 0.0
2014-Oct-17 17:33N 43°35' E 010°18'0 0.0
2014-Oct-17 16:33N 43°35' E 010°18'0 0.0
2014-Oct-17 15:33N 43°35' E 010°18'0 0.0
2014-Oct-17 14:33N 43°35' E 010°18'0 0.0
2014-Oct-17 13:33N 43°35' E 010°18'0 0.0
2014-Oct-17 12:33N 43°35' E 010°18'0 0.0
2014-Oct-17 11:33N 43°35' E 010°18'0 0.0
2014-Oct-17 10:33N 43°35' E 010°18'0 0.0
2014-Oct-17 09:33N 43°35' E 010°18'0 0.0
2014-Oct-17 08:33N 43°35' E 010°18'0 0.0
2014-Oct-17 07:33N 43°35' E 010°18'0 0.0
2014-Oct-17 06:33N 43°35' E 010°18'0 0.0
2014-Oct-17 05:33N 43°35' E 010°18'0 0.0
2014-Oct-17 04:33N 43°35' E 010°18'0 0.0
2014-Oct-17 03:33N 43°35' E 010°18'0 0.0
2014-Oct-17 02:33N 43°35' E 010°18'0 0.0
2014-Oct-17 01:33N 43°35' E 010°18'0 0.0
2014-Oct-17 00:33N 43°35' E 010°18'0 0.0
2014-Oct-16 23:33N 43°35' E 010°18'0 0.0
2014-Oct-16 22:33N 43°35' E 010°18'0 0.0
2014-Oct-16 21:33N 43°35' E 010°18'0 0.0
2014-Oct-16 20:33N 43°35' E 010°18'0 0.3
2014-Oct-16 19:33N 43°34' E 010°18'7 6.9
2014-Oct-16 18:33N 43°29' E 010°12'1919.2
2014-Oct-16 17:33N 43°18' E 009°50'2019.9
2014-Oct-16 16:33N 43°11' E 009°25'10520.2
2014-Oct-16 11:21N 42°36' E 007°10'3820.1
2014-Oct-16 09:28N 42°23' E 006°21'2319.6
2014-Oct-16 08:18N 42°16' E 005°52'2120.3
2014-Oct-16 07:16N 42°09' E 005°25'1720.1
2014-Oct-16 06:25N 42°03' E 005°04'1920.8
2014-Oct-16 05:31N 41°57' E 004°40'3919.6
2014-Oct-16 03:33N 41°43' E 003°51'1919.5
2014-Oct-16 02:34N 41°36' E 003°27'2019.5
2014-Oct-16 01:33N 41°30' E 003°03'2019.3
2014-Oct-16 00:33N 41°23' E 002°38'2019.9
2014-Oct-15 23:33N 41°16' E 002°14'6 5.9
2014-Oct-15 22:34N 41°22' E 002°11'0 0.0
2014-Oct-15 21:33N 41°22' E 002°11'0 0.0
2014-Oct-15 20:33N 41°22' E 002°11'0 0.0
2014-Oct-15 19:33N 41°22' E 002°11'8 5.7
2014-Oct-15 18:06N 41°14' E 002°09'1221.1
2014-Oct-15 17:33N 41°03' E 002°02'2121.2
2014-Oct-15 16:33N 40°44' E 001°49'2121.1
2014-Oct-15 15:33N 40°26' E 001°36'2121.0
2014-Oct-15 14:33N 40°07' E 001°24'2120.8
2014-Oct-15 13:33N 39°48' E 001°12'12720.5
2014-Oct-15 07:23N 37°59' W 000°09'1620.0
2014-Oct-15 06:33N 37°45' W 000°20'2020.0
2014-Oct-15 05:33N 37°29' W 000°36'2020.1
2014-Oct-15 04:33N 37°16' W 000°55'22220.2
2014-Oct-14 17:34N 35°59' W 005°14'11 1.4
2014-Oct-14 09:33N 35°59' W 005°28'1212.0
2014-Oct-14 08:33N 36°02' W 005°14'  
Track history (hours):
 
Tides and Currents Weather Stations Pressure Air Temp Water Temp Dewpoint Dewpoint Depression Visibility Wind Speed Wind Dir Waves Ship Positions

Ikarus

Last reported at 2014-Oct-24 07:33 UTC. Time now 2014-Oct-24 07:56 UTC.
Position N 43°35' E 010°18'.

Length 200 m; draft 6.7 m.

Type: Ship. MMSI: 239513000.

Date/timePositionNaut miles runAvg speedWind from/ knotsBaromVisibWave heightAir tempDewpointWater temp
2014-Oct-24 07:33N 43°35' E 010°18'0 0.0
2014-Oct-24 06:33N 43°35' E 010°18'0 0.0
2014-Oct-24 05:33N 43°35' E 010°18'0 0.0
2014-Oct-24 04:33N 43°35' E 010°18'0 0.0
2014-Oct-24 03:33N 43°35' E 010°18'0 0.0
2014-Oct-24 02:33N 43°35' E 010°18'0 0.0
2014-Oct-24 01:27N 43°35' E 010°18'0 0.0
2014-Oct-24 00:33N 43°35' E 010°18'0 0.0
2014-Oct-23 23:33N 43°35' E 010°18'0 0.0
2014-Oct-23 22:33N 43°35' E 010°18'1 0.5
2014-Oct-23 21:33N 43°34' E 010°18'7 7.3
2014-Oct-23 20:33N 43°30' E 010°10'1817.7
2014-Oct-23 19:33N 43°29' E 009°46'2120.9
2014-Oct-23 18:33N 43°24' E 009°18'2020.4
2014-Oct-23 17:33N 43°20' E 008°51'2420.4
2014-Oct-23 16:22N 43°14' E 008°18'3719.5
2014-Oct-23 14:27N 43°06' E 007°28'1819.7
2014-Oct-23 13:33N 43°02' E 007°05'2020.0
2014-Oct-23 12:33N 42°58' E 006°38'2219.7
2014-Oct-23 11:26N 42°55' E 006°08'4619.7
2014-Oct-23 09:07N 43°00' E 005°06'1119.1
2014-Oct-23 08:33N 43°03' E 004°52'2218.1
2014-Oct-23 07:20N 42°50' E 004°27'1617.7
2014-Oct-23 06:27N 42°39' E 004°11'12110.1
2014-Oct-22 18:27N 41°18' E 002°11'21920.1
2014-Oct-22 07:33N 38°04' W 000°04'2120.4
2014-Oct-22 06:33N 37°47' W 000°18'1919.5
2014-Oct-22 05:33N 37°32' W 000°33'1919.5
2014-Oct-22 04:33N 37°19' W 000°51'2020.2
2014-Oct-22 03:33N 37°06' W 001°11'20420.0
2014-Oct-21 17:23N 35°59' W 005°10'16 2.1
2014-Oct-21 09:30N 35°56' W 005°30'1313.5
2014-Oct-21 08:33N 36°02' W 005°16'20614.6
2014-Oct-20 18:25N 37°07' W 001°12'1416.2
2014-Oct-20 17:34N 37°16' W 000°59'1616.2
2014-Oct-20 16:33N 37°27' W 000°44'1616.4
2014-Oct-20 15:33N 37°39' W 000°30'1616.0
2014-Oct-20 14:33N 37°52' W 000°18'3816.1
2014-Oct-20 12:09N 38°25' E 000°08'5916.1
2014-Oct-20 08:31N 39°15' E 000°46'14210.7
2014-Oct-19 19:15N 41°22' E 002°11'1 1.1
2014-Oct-19 18:18N 41°21' E 002°11'1818.9
2014-Oct-19 17:20N 41°26' E 002°35'1616.7
2014-Oct-19 16:22N 41°32' E 002°55'1619.2
2014-Oct-19 15:32N 41°39' E 003°14'2020.2
2014-Oct-19 14:33N 41°48' E 003°38'2120.4
2014-Oct-19 13:32N 41°57' E 004°03'2119.1
2014-Oct-19 12:27N 42°06' E 004°28'1819.2
2014-Oct-19 11:32N 42°13' E 004°50'1919.5
2014-Oct-19 10:33N 42°22' E 005°13'9118.2
2014-Oct-19 05:33N 42°56' E 007°08'1919.1
2014-Oct-19 04:33N 43°01' E 007°33'3919.3
2014-Oct-19 02:33N 43°12' E 008°24'1918.9
2014-Oct-19 01:33N 43°17' E 008°49'1918.7
2014-Oct-19 00:33N 43°22' E 009°13'1919.2
2014-Oct-18 23:33N 43°27' E 009°39'1919.4
2014-Oct-18 22:33N 43°30' E 010°05'1010.4
2014-Oct-18 21:33N 43°35' E 010°18'0 0.1
2014-Oct-18 20:33N 43°35' E 010°18'0 0.0
2014-Oct-18 19:33N 43°35' E 010°18'0 0.0
2014-Oct-18 18:34N 43°35' E 010°18'0 0.0
2014-Oct-18 17:34N 43°35' E 010°18'0 0.0
2014-Oct-18 16:34N 43°35' E 010°18'0 0.0
2014-Oct-18 15:34N 43°35' E 010°18'0 0.0
2014-Oct-18 14:34N 43°35' E 010°18'0 0.0
2014-Oct-18 13:34N 43°35' E 010°18'0 0.0
2014-Oct-18 12:34N 43°35' E 010°18'0 0.0
2014-Oct-18 11:34N 43°35' E 010°18'0 0.0
2014-Oct-18 10:33N 43°35' E 010°18'0 0.0
2014-Oct-18 09:33N 43°35' E 010°18'0 0.0
2014-Oct-18 08:34N 43°35' E 010°18'0 0.0
2014-Oct-18 07:34N 43°35' E 010°18'0 0.0
2014-Oct-18 06:34N 43°35' E 010°18'0 0.0
2014-Oct-18 05:33N 43°35' E 010°18'0 0.0
2014-Oct-18 04:34N 43°35' E 010°18'0 0.0
2014-Oct-18 03:34N 43°35' E 010°18'0 0.0
2014-Oct-18 02:34N 43°35' E 010°18'0 0.0
2014-Oct-18 01:33N 43°35' E 010°18'0 0.0
2014-Oct-18 00:34N 43°35' E 010°18'0 0.0
2014-Oct-17 23:34N 43°35' E 010°18'0 0.0
2014-Oct-17 22:34N 43°35' E 010°18'0 0.0
2014-Oct-17 21:34N 43°35' E 010°18'0 0.0
2014-Oct-17 20:33N 43°35' E 010°18'0 0.0
2014-Oct-17 19:33N 43°35' E 010°18'0 0.0
2014-Oct-17 18:33N 43°35' E 010°18'0 0.0
2014-Oct-17 17:33N 43°35' E 010°18'0 0.0
2014-Oct-17 16:33N 43°35' E 010°18'0 0.0
2014-Oct-17 15:33N 43°35' E 010°18'0 0.0
2014-Oct-17 14:33N 43°35' E 010°18'0 0.0
2014-Oct-17 13:33N 43°35' E 010°18'0 0.0
2014-Oct-17 12:33N 43°35' E 010°18'0 0.0
2014-Oct-17 11:33N 43°35' E 010°18'0 0.0
2014-Oct-17 10:33N 43°35' E 010°18'0 0.0
2014-Oct-17 09:33N 43°35' E 010°18'0 0.0
2014-Oct-17 08:33N 43°35' E 010°18'0 0.0
2014-Oct-17 07:33N 43°35' E 010°18'0 0.0
2014-Oct-17 06:33N 43°35' E 010°18'0 0.0
2014-Oct-17 05:33N 43°35' E 010°18'0 0.0
2014-Oct-17 04:33N 43°35' E 010°18'0 0.0
2014-Oct-17 03:33N 43°35' E 010°18'0 0.0
2014-Oct-17 02:33N 43°35' E 010°18'0 0.0
2014-Oct-17 01:33N 43°35' E 010°18'0 0.0
2014-Oct-17 00:33N 43°35' E 010°18'0 0.0
2014-Oct-16 23:33N 43°35' E 010°18'0 0.0
2014-Oct-16 22:33N 43°35' E 010°18'0 0.0
2014-Oct-16 21:33N 43°35' E 010°18'0 0.0
2014-Oct-16 20:33N 43°35' E 010°18'0 0.3
2014-Oct-16 19:33N 43°34' E 010°18'7 6.9
2014-Oct-16 18:33N 43°29' E 010°12'1919.2
2014-Oct-16 17:33N 43°18' E 009°50'2019.9
2014-Oct-16 16:33N 43°11' E 009°25'10520.2
2014-Oct-16 11:21N 42°36' E 007°10'3820.1
2014-Oct-16 09:28N 42°23' E 006°21'2319.6
2014-Oct-16 08:18N 42°16' E 005°52'2120.3
2014-Oct-16 07:16N 42°09' E 005°25'1720.1
2014-Oct-16 06:25N 42°03' E 005°04'1920.8
2014-Oct-16 05:31N 41°57' E 004°40'3919.6
2014-Oct-16 03:33N 41°43' E 003°51'1919.5
2014-Oct-16 02:34N 41°36' E 003°27'2019.5
2014-Oct-16 01:33N 41°30' E 003°03'2019.3
2014-Oct-16 00:33N 41°23' E 002°38'2019.9
2014-Oct-15 23:33N 41°16' E 002°14'6 5.9
2014-Oct-15 22:34N 41°22' E 002°11'0 0.0
2014-Oct-15 21:33N 41°22' E 002°11'0 0.0
2014-Oct-15 20:33N 41°22' E 002°11'0 0.0
2014-Oct-15 19:33N 41°22' E 002°11'8 5.7
2014-Oct-15 18:06N 41°14' E 002°09'1221.1
2014-Oct-15 17:33N 41°03' E 002°02'2121.2
2014-Oct-15 16:33N 40°44' E 001°49'2121.1
2014-Oct-15 15:33N 40°26' E 001°36'2121.0
2014-Oct-15 14:33N 40°07' E 001°24'2120.8
2014-Oct-15 13:33N 39°48' E 001°12'12720.5
2014-Oct-15 07:23N 37°59' W 000°09'1620.0
2014-Oct-15 06:33N 37°45' W 000°20'2020.0
2014-Oct-15 05:33N 37°29' W 000°36'2020.1
2014-Oct-15 04:33N 37°16' W 000°55'22220.2
2014-Oct-14 17:34N 35°59' W 005°14'11 1.4
2014-Oct-14 09:33N 35°59' W 005°28'1212.0
2014-Oct-14 08:33N 36°02' W 005°14'  

Dump ship's entire track history